ASN logo
Last updated: 3 December 2021
Status:Preliminary - official
Date:Monday 8 February 2021
Time:11:02
Type:Silhouette image of generic E50P model; specific model in this crash may look slightly different
Embraer EMB-500 Phenom 100
Operator:Luxwing
Registration: 9H-FAM
MSN: 50000100
First flight: 2011
Engines: 2 Pratt & Whitney Canada PW615F
Crew:Fatalities: 0 / Occupants:
Passengers:Fatalities: 0 / Occupants:
Total:Fatalities: 0 / Occupants: 3
Aircraft damage: Substantial
Location:Paris-Le Bourget Airport (LBG) (   France)
Phase: Landing (LDG)
Nature:Unknown
Departure airport:Venice-Marco Polo Airport (VCE/LIPZ), Italy
Destination airport:Paris-Le Bourget Airport (LBG/LFPB), France
Flightnumber:LWG301
Narrative:
Shortly before landing on runway 27 at Paris-Le Bourget Airport, the Embraer Phenom 100 aircraft stalled. The main gears and the nose gear broke. The plane slid on the runway and a fire broke out. The plane came to a stop to the left of the runway.

Accident investigation:
Investigating agency: BEA
Status: Investigation ongoing

Classification:
Runway excursion

Sources:
» BEA

METAR Weather report:
09:30 UTC / 10:30 local time:
LFPB 080930Z AUTO 36005KT 320V040 5000 BR OVC011 M01/M03 Q0998 BECMG BKN020

10:00 UTC / 11:00 local time:
LFPB 081000Z AUTO 01004KT 320V040 5000 BR OVC011 M01/M03 Q0998 BECMG BKN020

10:30 UTC / 11:30 local time:
LFPB 081030Z AUTO 34004KT 280V020 5000 BR OVC012 M01/M03 Q0998 BECMG BKN020


Photos

photo of Embraer-EMB-500-Phenom-100-9H-FAM
accident date: 08-02-2021
type: Embraer EMB-500 Phenom 100
registration: 9H-FAM
photo of Embraer-EMB-500-Phenom-100-9H-FAM
accident date: 08-02-2021
type: Embraer EMB-500 Phenom 100
registration: 9H-FAM
photo of Embraer-EMB-500-Phenom-100-9H-FAM
accident date: 08-02-2021
type: Embraer EMB-500 Phenom 100
registration: 9H-FAM
 

Map
This map shows the airport of departure and the intended destination of the flight. The line is connecting ADS-B datapoints from Flightradar24.
Distance from Venice-Marco Polo Airport to Paris-Le Bourget Airport as the crow flies is 835 km (522 miles).
Accident location: Approximate; accuracy within a few kilometers.

This information is not presented as the Flight Safety Foundation or the Aviation Safety Network’s opinion as to the cause of the accident. It is preliminary and is based on the facts as they are known at this time.
languages: languages

Share